sensor_id;sensor_type;location;lat;lon;timestamp;pressure;altitude;pressure_sealevel;temperature
60936;BMP280;46804;51.786;19.520;2022-10-31T00:02:48;98712.50;;;12.38
60936;BMP280;46804;51.786;19.520;2022-10-31T00:06:49;98710.66;;;12.48
60936;BMP280;46804;51.786;19.520;2022-10-31T00:10:49;98717.63;;;12.49
60936;BMP280;46804;51.786;19.520;2022-10-31T00:14:50;98729.72;;;12.66
60936;BMP280;46804;51.786;19.520;2022-10-31T00:18:52;98733.19;;;12.67
60936;BMP280;46804;51.786;19.520;2022-10-31T00:22:53;98736.34;;;12.54
60936;BMP280;46804;51.786;19.520;2022-10-31T00:26:53;98735.22;;;12.45
60936;BMP280;46804;51.786;19.520;2022-10-31T00:30:54;98736.25;;;12.39
60936;BMP280;46804;51.786;19.520;2022-10-31T00:34:54;98738.38;;;12.37
60936;BMP280;46804;51.786;19.520;2022-10-31T00:38:55;98737.28;;;12.33
60936;BMP280;46804;51.786;19.520;2022-10-31T00:42:55;98744.44;;;12.28
60936;BMP280;46804;51.786;19.520;2022-10-31T00:46:56;98750.00;;;12.21
60936;BMP280;46804;51.786;19.520;2022-10-31T00:50:56;98746.22;;;12.13
60936;BMP280;46804;51.786;19.520;2022-10-31T00:54:57;98741.41;;;12.10
60936;BMP280;46804;51.786;19.520;2022-10-31T00:58:57;98740.31;;;12.06
60936;BMP280;46804;51.786;19.520;2022-10-31T01:02:58;98743.50;;;12.03
60936;BMP280;46804;51.786;19.520;2022-10-31T01:06:58;98749.63;;;12.03
60936;BMP280;46804;51.786;19.520;2022-10-31T01:11:12;98752.34;;;12.13
60936;BMP280;46804;51.786;19.520;2022-10-31T01:15:14;98755.56;;;12.15
60936;BMP280;46804;51.786;19.520;2022-10-31T01:19:15;98744.63;;;12.12
60936;BMP280;46804;51.786;19.520;2022-10-31T01:23:16;98741.09;;;12.06
60936;BMP280;46804;51.786;19.520;2022-10-31T01:27:16;98739.50;;;12.05
60936;BMP280;46804;51.786;19.520;2022-10-31T01:31:19;98740.53;;;12.04
60936;BMP280;46804;51.786;19.520;2022-10-31T01:35:20;98738.69;;;12.05
60936;BMP280;46804;51.786;19.520;2022-10-31T01:39:20;98734.41;;;12.04
60936;BMP280;46804;51.786;19.520;2022-10-31T01:43:21;98731.19;;;12.02
60936;BMP280;46804;51.786;19.520;2022-10-31T01:47:29;98726.13;;;12.00
60936;BMP280;46804;51.786;19.520;2022-10-31T01:51:35;98739.66;;;11.94
60936;BMP280;46804;51.786;19.520;2022-10-31T01:55:39;98727.88;;;11.85
60936;BMP280;46804;51.786;19.520;2022-10-31T01:59:48;98729.38;;;11.76
60936;BMP280;46804;51.786;19.520;2022-10-31T02:03:49;98725.94;;;11.76
60936;BMP280;46804;51.786;19.520;2022-10-31T02:07:55;98727.22;;;11.68
60936;BMP280;46804;51.786;19.520;2022-10-31T02:11:58;98726.09;;;11.64
60936;BMP280;46804;51.786;19.520;2022-10-31T02:16:00;98725.00;;;11.60
60936;BMP280;46804;51.786;19.520;2022-10-31T02:20:09;98725.53;;;11.57
60936;BMP280;46804;51.786;19.520;2022-10-31T02:24:33;98734.31;;;11.58
60936;BMP280;46804;51.786;19.520;2022-10-31T02:28:54;98724.97;;;11.55
60936;BMP280;46804;51.786;19.520;2022-10-31T02:37:40;98745.63;;;11.44
60936;BMP280;46804;51.786;19.520;2022-10-31T02:41:58;98732.78;;;11.41
60936;BMP280;46804;51.786;19.520;2022-10-31T02:46:08;98738.06;;;11.36
60936;BMP280;46804;51.786;19.520;2022-10-31T02:50:21;98742.84;;;11.34
60936;BMP280;46804;51.786;19.520;2022-10-31T02:54:24;98746.25;;;11.29
60936;BMP280;46804;51.786;19.520;2022-10-31T02:58:28;98748.06;;;11.24
60936;BMP280;46804;51.786;19.520;2022-10-31T03:11:30;98750.50;;;11.04
60936;BMP280;46804;51.786;19.520;2022-10-31T03:15:36;98747.78;;;10.99
60936;BMP280;46804;51.786;19.520;2022-10-31T03:19:41;98752.22;;;10.94
60936;BMP280;46804;51.786;19.520;2022-10-31T03:23:44;98748.47;;;10.90
60936;BMP280;46804;51.786;19.520;2022-10-31T03:27:46;98744.16;;;10.84
60936;BMP280;46804;51.786;19.520;2022-10-31T03:32:01;98742.72;;;10.77
60936;BMP280;46804;51.786;19.520;2022-10-31T03:36:02;98740.50;;;10.69
60936;BMP280;46804;51.786;19.520;2022-10-31T03:40:06;98748.97;;;10.66
60936;BMP280;46804;51.786;19.520;2022-10-31T03:44:15;98755.84;;;10.62
60936;BMP280;46804;51.786;19.520;2022-10-31T03:48:18;98758.91;;;10.54
60936;BMP280;46804;51.786;19.520;2022-10-31T03:52:39;98765.78;;;10.50
60936;BMP280;46804;51.786;19.520;2022-10-31T03:56:47;98764.47;;;10.52
60936;BMP280;46804;51.786;19.520;2022-10-31T04:00:51;98770.91;;;10.56
60936;BMP280;46804;51.786;19.520;2022-10-31T04:04:52;98772.28;;;10.59
60936;BMP280;46804;51.786;19.520;2022-10-31T04:08:59;98768.34;;;10.61
60936;BMP280;46804;51.786;19.520;2022-10-31T04:13:04;98772.66;;;10.67
60936;BMP280;46804;51.786;19.520;2022-10-31T04:17:09;98776.00;;;10.58
60936;BMP280;46804;51.786;19.520;2022-10-31T04:21:11;98776.75;;;10.53
60936;BMP280;46804;51.786;19.520;2022-10-31T04:25:11;98770.28;;;10.50
60936;BMP280;46804;51.786;19.520;2022-10-31T04:29:12;98779.06;;;10.50
60936;BMP280;46804;51.786;19.520;2022-10-31T04:33:12;98782.22;;;10.47
60936;BMP280;46804;51.786;19.520;2022-10-31T04:37:12;98780.13;;;10.49
60936;BMP280;46804;51.786;19.520;2022-10-31T04:41:13;98778.09;;;10.56
60936;BMP280;46804;51.786;19.520;2022-10-31T04:45:14;98775.44;;;10.56
60936;BMP280;46804;51.786;19.520;2022-10-31T04:49:14;98766.59;;;10.51
60936;BMP280;46804;51.786;19.520;2022-10-31T04:53:15;98775.56;;;10.45
60936;BMP280;46804;51.786;19.520;2022-10-31T04:57:15;98777.16;;;10.46
60936;BMP280;46804;51.786;19.520;2022-10-31T05:01:16;98779.13;;;10.34
60936;BMP280;46804;51.786;19.520;2022-10-31T05:05:19;98787.25;;;10.27
60936;BMP280;46804;51.786;19.520;2022-10-31T05:09:19;98791.47;;;10.23
60936;BMP280;46804;51.786;19.520;2022-10-31T05:13:20;98794.63;;;10.20
60936;BMP280;46804;51.786;19.520;2022-10-31T05:17:20;98791.38;;;10.18
60936;BMP280;46804;51.786;19.520;2022-10-31T05:21:21;98792.34;;;10.13
60936;BMP280;46804;51.786;19.520;2022-10-31T05:25:24;98790.81;;;10.17
60936;BMP280;46804;51.786;19.520;2022-10-31T05:29:24;98792.41;;;10.17
60936;BMP280;46804;51.786;19.520;2022-10-31T05:33:25;98794.22;;;10.12
60936;BMP280;46804;51.786;19.520;2022-10-31T05:37:25;98794.44;;;10.11
60936;BMP280;46804;51.786;19.520;2022-10-31T05:41:26;98799.28;;;9.97
60936;BMP280;46804;51.786;19.520;2022-10-31T05:45:26;98800.34;;;9.85
60936;BMP280;46804;51.786;19.520;2022-10-31T05:49:27;98793.44;;;9.84
60936;BMP280;46804;51.786;19.520;2022-10-31T05:53:27;98796.19;;;9.89
60936;BMP280;46804;51.786;19.520;2022-10-31T05:57:29;98799.63;;;10.01
60936;BMP280;46804;51.786;19.520;2022-10-31T06:01:29;98784.53;;;10.06
60936;BMP280;46804;51.786;19.520;2022-10-31T06:05:30;98794.13;;;10.07
60936;BMP280;46804;51.786;19.520;2022-10-31T06:09:31;98801.38;;;10.12
60936;BMP280;46804;51.786;19.520;2022-10-31T06:13:31;98802.19;;;10.12
60936;BMP280;46804;51.786;19.520;2022-10-31T06:17:33;98800.03;;;10.09
60936;BMP280;46804;51.786;19.520;2022-10-31T06:21:34;98800.81;;;10.10
60936;BMP280;46804;51.786;19.520;2022-10-31T06:25:34;98807.81;;;9.99
60936;BMP280;46804;51.786;19.520;2022-10-31T06:29:35;98809.56;;;9.94
60936;BMP280;46804;51.786;19.520;2022-10-31T06:33:35;98823.13;;;9.92
60936;BMP280;46804;51.786;19.520;2022-10-31T06:37:36;98813.06;;;9.83
60936;BMP280;46804;51.786;19.520;2022-10-31T06:41:37;98818.72;;;9.86
60936;BMP280;46804;51.786;19.520;2022-10-31T06:45:40;98817.88;;;9.97
60936;BMP280;46804;51.786;19.520;2022-10-31T06:49:40;98818.88;;;10.08
60936;BMP280;46804;51.786;19.520;2022-10-31T06:53:41;98830.94;;;10.15
60936;BMP280;46804;51.786;19.520;2022-10-31T06:57:41;98829.41;;;10.35
60936;BMP280;46804;51.786;19.520;2022-10-31T07:01:42;98833.13;;;10.34
60936;BMP280;46804;51.786;19.520;2022-10-31T07:05:44;98840.19;;;10.45
60936;BMP280;46804;51.786;19.520;2022-10-31T07:09:44;98856.56;;;10.53
60936;BMP280;46804;51.786;19.520;2022-10-31T07:13:45;98859.06;;;10.44
60936;BMP280;46804;51.786;19.520;2022-10-31T07:17:45;98867.19;;;10.53
60936;BMP280;46804;51.786;19.520;2022-10-31T07:21:46;98862.84;;;10.64
60936;BMP280;46804;51.786;19.520;2022-10-31T07:25:47;98872.03;;;10.73
60936;BMP280;46804;51.786;19.520;2022-10-31T07:29:47;98871.06;;;10.62
60936;BMP280;46804;51.786;19.520;2022-10-31T07:33:48;98869.34;;;10.73
60936;BMP280;46804;51.786;19.520;2022-10-31T07:37:48;98875.47;;;10.73
60936;BMP280;46804;51.786;19.520;2022-10-31T07:41:49;98883.19;;;10.91
60936;BMP280;46804;51.786;19.520;2022-10-31T07:45:51;98885.16;;;10.79
60936;BMP280;46804;51.786;19.520;2022-10-31T07:49:52;98888.50;;;10.91
60936;BMP280;46804;51.786;19.520;2022-10-31T07:53:52;98885.25;;;11.05
60936;BMP280;46804;51.786;19.520;2022-10-31T07:57:58;98888.25;;;11.30
60936;BMP280;46804;51.786;19.520;2022-10-31T08:01:58;98886.19;;;11.37
60936;BMP280;46804;51.786;19.520;2022-10-31T08:05:59;98888.69;;;11.43
60936;BMP280;46804;51.786;19.520;2022-10-31T08:09:59;98885.94;;;11.38
60936;BMP280;46804;51.786;19.520;2022-10-31T08:14:00;98901.81;;;11.71
60936;BMP280;46804;51.786;19.520;2022-10-31T08:18:00;98896.63;;;11.59
60936;BMP280;46804;51.786;19.520;2022-10-31T08:22:02;98891.84;;;11.61
60936;BMP280;46804;51.786;19.520;2022-10-31T08:26:02;98888.75;;;11.95
60936;BMP280;46804;51.786;19.520;2022-10-31T08:30:03;98892.28;;;12.01
60936;BMP280;46804;51.786;19.520;2022-10-31T08:34:04;98889.72;;;12.16
60936;BMP280;46804;51.786;19.520;2022-10-31T08:38:04;98900.66;;;12.45
60936;BMP280;46804;51.786;19.520;2022-10-31T08:42:05;98898.16;;;12.29
60936;BMP280;46804;51.786;19.520;2022-10-31T08:46:06;98896.94;;;12.46
60936;BMP280;46804;51.786;19.520;2022-10-31T08:50:07;98892.69;;;12.50
60936;BMP280;46804;51.786;19.520;2022-10-31T08:54:07;98900.09;;;12.38
60936;BMP280;46804;51.786;19.520;2022-10-31T08:58:13;98897.13;;;12.66
60936;BMP280;46804;51.786;19.520;2022-10-31T09:02:14;98909.81;;;12.54
60936;BMP280;46804;51.786;19.520;2022-10-31T09:06:15;98904.56;;;12.64
60936;BMP280;46804;51.786;19.520;2022-10-31T09:10:15;98908.53;;;12.88
60936;BMP280;46804;51.786;19.520;2022-10-31T09:14:16;98912.81;;;12.98
60936;BMP280;46804;51.786;19.520;2022-10-31T09:18:19;98917.72;;;13.11
60936;BMP280;46804;51.786;19.520;2022-10-31T09:22:20;98917.16;;;13.04
60936;BMP280;46804;51.786;19.520;2022-10-31T09:26:20;98923.13;;;13.21
60936;BMP280;46804;51.786;19.520;2022-10-31T09:30:21;98920.72;;;13.20
60936;BMP280;46804;51.786;19.520;2022-10-31T09:34:22;98923.38;;;13.15
60936;BMP280;46804;51.786;19.520;2022-10-31T09:38:22;98925.78;;;13.16
60936;BMP280;46804;51.786;19.520;2022-10-31T09:51:32;98915.28;;;13.51
60936;BMP280;46804;51.786;19.520;2022-10-31T09:55:44;98923.84;;;13.57
60936;BMP280;46804;51.786;19.520;2022-10-31T09:59:49;98922.13;;;14.02
60936;BMP280;46804;51.786;19.520;2022-10-31T10:03:53;98919.31;;;13.63
60936;BMP280;46804;51.786;19.520;2022-10-31T10:08:09;98917.09;;;14.26
60936;BMP280;46804;51.786;19.520;2022-10-31T10:13:31;98920.34;;;14.57
60936;BMP280;46804;51.786;19.520;2022-10-31T10:17:03;98930.78;;;15.13
60936;BMP280;46804;51.786;19.520;2022-10-31T10:25:30;98936.00;;;15.62
60936;BMP280;46804;51.786;19.520;2022-10-31T10:29:39;98932.72;;;15.70
60936;BMP280;46804;51.786;19.520;2022-10-31T10:33:58;98932.81;;;16.08
60936;BMP280;46804;51.786;19.520;2022-10-31T10:42:19;98928.50;;;16.12
60936;BMP280;46804;51.786;19.520;2022-10-31T10:46:48;98932.56;;;16.04
60936;BMP280;46804;51.786;19.520;2022-10-31T10:51:26;98918.78;;;15.68
60936;BMP280;46804;51.786;19.520;2022-10-31T10:55:44;98916.69;;;16.13
60936;BMP280;46804;51.786;19.520;2022-10-31T10:59:50;98917.00;;;16.49
60936;BMP280;46804;51.786;19.520;2022-10-31T11:03:51;98922.97;;;16.74
60936;BMP280;46804;51.786;19.520;2022-10-31T11:07:51;98929.03;;;16.19
60936;BMP280;46804;51.786;19.520;2022-10-31T11:11:53;98926.44;;;16.47
60936;BMP280;46804;51.786;19.520;2022-10-31T11:16:08;98927.25;;;16.75
60936;BMP280;46804;51.786;19.520;2022-10-31T11:24:18;98922.88;;;17.40
60936;BMP280;46804;51.786;19.520;2022-10-31T11:28:19;98935.88;;;17.57
60936;BMP280;46804;51.786;19.520;2022-10-31T11:32:22;98899.81;;;19.30
60936;BMP280;46804;51.786;19.520;2022-10-31T11:36:30;98827.13;;;20.43
60936;BMP280;46804;51.786;19.520;2022-10-31T11:40:31;98796.22;;;20.79
60936;BMP280;46804;51.786;19.520;2022-10-31T11:44:31;98825.59;;;21.41
60936;BMP280;46804;51.786;19.520;2022-10-31T11:48:33;98785.34;;;21.48
60936;BMP280;46804;51.786;19.520;2022-10-31T11:52:33;98763.25;;;21.16
60936;BMP280;46804;51.786;19.520;2022-10-31T11:56:41;98683.25;;;21.57
60936;BMP280;46804;51.786;19.520;2022-10-31T12:00:49;98653.09;;;22.17
60936;BMP280;46804;51.786;19.520;2022-10-31T12:05:08;98527.22;;;23.12
60936;BMP280;46804;51.786;19.520;2022-10-31T12:09:32;98442.22;;;23.64
60936;BMP280;46804;51.786;19.520;2022-10-31T12:13:38;98509.41;;;23.23
60936;BMP280;46804;51.786;19.520;2022-10-31T12:22:24;98739.66;;;21.88
60936;BMP280;46804;51.786;19.520;2022-10-31T12:26:34;98890.72;;;20.84
60936;BMP280;46804;51.786;19.520;2022-10-31T12:35:03;98759.25;;;21.69
60936;BMP280;46804;51.786;19.520;2022-10-31T12:39:33;98621.94;;;22.40
60936;BMP280;46804;51.786;19.520;2022-10-31T12:43:58;98591.88;;;22.82
60936;BMP280;46804;51.786;19.520;2022-10-31T12:48:24;98428.28;;;23.53
60936;BMP280;46804;51.786;19.520;2022-10-31T12:52:57;98372.59;;;24.07
60936;BMP280;46804;51.786;19.520;2022-10-31T12:57:23;98434.72;;;23.49
60936;BMP280;46804;51.786;19.520;2022-10-31T13:01:36;98389.00;;;24.22
60936;BMP280;46804;51.786;19.520;2022-10-31T13:05:44;98275.25;;;24.63
60936;BMP280;46804;51.786;19.520;2022-10-31T13:09:58;98249.59;;;25.22
60936;BMP280;46804;51.786;19.520;2022-10-31T13:14:20;98201.94;;;25.46
60936;BMP280;46804;51.786;19.520;2022-10-31T13:18:31;98117.63;;;26.06
60936;BMP280;46804;51.786;19.520;2022-10-31T13:22:33;98197.81;;;25.52
60936;BMP280;46804;51.786;19.520;2022-10-31T13:26:38;98124.00;;;26.13
60936;BMP280;46804;51.786;19.520;2022-10-31T13:30:41;98129.72;;;26.27
60936;BMP280;46804;51.786;19.520;2022-10-31T13:34:47;98209.03;;;25.66
60936;BMP280;46804;51.786;19.520;2022-10-31T13:38:54;98363.56;;;25.08
60936;BMP280;46804;51.786;19.520;2022-10-31T13:43:03;98268.03;;;25.43
60936;BMP280;46804;51.786;19.520;2022-10-31T13:47:27;98329.63;;;25.48
60936;BMP280;46804;51.786;19.520;2022-10-31T13:51:30;98309.22;;;25.26
60936;BMP280;46804;51.786;19.520;2022-10-31T13:56:01;98414.13;;;24.55
60936;BMP280;46804;51.786;19.520;2022-10-31T14:00:24;98413.97;;;25.02
60936;BMP280;46804;51.786;19.520;2022-10-31T14:04:38;98335.13;;;25.21
60936;BMP280;46804;51.786;19.520;2022-10-31T14:08:43;98452.00;;;24.24
60936;BMP280;46804;51.786;19.520;2022-10-31T14:12:48;98687.16;;;23.37
60936;BMP280;46804;51.786;19.520;2022-10-31T14:16:55;98677.69;;;23.23
60936;BMP280;46804;51.786;19.520;2022-10-31T14:20:57;98768.09;;;22.86
60936;BMP280;46804;51.786;19.520;2022-10-31T14:24:57;98874.06;;;22.23
60936;BMP280;46804;51.786;19.520;2022-10-31T14:29:01;98900.38;;;21.67
60936;BMP280;46804;51.786;19.520;2022-10-31T14:33:18;99019.28;;;21.04
60936;BMP280;46804;51.786;19.520;2022-10-31T14:54:40;99141.41;;;19.05
60936;BMP280;46804;51.786;19.520;2022-10-31T14:58:43;99050.78;;;18.67
60936;BMP280;46804;51.786;19.520;2022-10-31T15:03:14;98960.41;;;18.38
60936;BMP280;46804;51.786;19.520;2022-10-31T15:07:18;98925.97;;;18.17
60936;BMP280;46804;51.786;19.520;2022-10-31T15:11:26;98901.75;;;17.94
60936;BMP280;46804;51.786;19.520;2022-10-31T15:15:27;98887.88;;;17.64
60936;BMP280;46804;51.786;19.520;2022-10-31T15:19:30;98886.19;;;17.26
60936;BMP280;46804;51.786;19.520;2022-10-31T15:23:30;98878.28;;;16.55
60936;BMP280;46804;51.786;19.520;2022-10-31T15:27:32;98870.13;;;16.65
60936;BMP280;46804;51.786;19.520;2022-10-31T15:31:33;98871.03;;;16.23
60936;BMP280;46804;51.786;19.520;2022-10-31T15:35:34;98865.53;;;15.90
60936;BMP280;46804;51.786;19.520;2022-10-31T15:39:34;98866.03;;;15.54
60936;BMP280;46804;51.786;19.520;2022-10-31T15:43:37;98868.91;;;15.67
60936;BMP280;46804;51.786;19.520;2022-10-31T15:47:38;98864.66;;;15.56
60936;BMP280;46804;51.786;19.520;2022-10-31T15:51:44;98864.25;;;15.25
60936;BMP280;46804;51.786;19.520;2022-10-31T15:55:49;98868.59;;;15.06
60936;BMP280;46804;51.786;19.520;2022-10-31T15:59:51;98874.22;;;14.90
60936;BMP280;46804;51.786;19.520;2022-10-31T16:04:04;98871.59;;;14.80
60936;BMP280;46804;51.786;19.520;2022-10-31T16:08:26;98871.59;;;14.65
60936;BMP280;46804;51.786;19.520;2022-10-31T16:12:37;98864.38;;;14.46
60936;BMP280;46804;51.786;19.520;2022-10-31T16:16:45;98870.56;;;14.31
60936;BMP280;46804;51.786;19.520;2022-10-31T16:20:50;98874.00;;;14.12
60936;BMP280;46804;51.786;19.520;2022-10-31T16:25:10;98868.13;;;14.05
60936;BMP280;46804;51.786;19.520;2022-10-31T16:29:24;98865.69;;;14.04
60936;BMP280;46804;51.786;19.520;2022-10-31T16:33:35;98865.38;;;13.91
60936;BMP280;46804;51.786;19.520;2022-10-31T16:37:40;98876.88;;;13.81
60936;BMP280;46804;51.786;19.520;2022-10-31T16:41:42;98870.13;;;13.64
60936;BMP280;46804;51.786;19.520;2022-10-31T16:45:46;98878.16;;;13.64
60936;BMP280;46804;51.786;19.520;2022-10-31T16:49:48;98886.69;;;13.56
60936;BMP280;46804;51.786;19.520;2022-10-31T16:53:51;98879.94;;;13.39
60936;BMP280;46804;51.786;19.520;2022-10-31T16:57:55;98890.22;;;13.11
60936;BMP280;46804;51.786;19.520;2022-10-31T17:01:55;98880.41;;;13.26
60936;BMP280;46804;51.786;19.520;2022-10-31T17:05:56;98888.03;;;13.03
60936;BMP280;46804;51.786;19.520;2022-10-31T17:09:57;98882.59;;;12.88
60936;BMP280;46804;51.786;19.520;2022-10-31T17:13:57;98888.66;;;12.79
60936;BMP280;46804;51.786;19.520;2022-10-31T17:17:58;98885.97;;;12.43
60936;BMP280;46804;51.786;19.520;2022-10-31T17:22:01;98888.09;;;12.41
60936;BMP280;46804;51.786;19.520;2022-10-31T17:26:01;98892.06;;;12.33
60936;BMP280;46804;51.786;19.520;2022-10-31T17:30:02;98889.59;;;12.27
60936;BMP280;46804;51.786;19.520;2022-10-31T17:34:02;98891.34;;;12.17
60936;BMP280;46804;51.786;19.520;2022-10-31T17:38:05;98885.63;;;12.03
60936;BMP280;46804;51.786;19.520;2022-10-31T17:42:05;98891.16;;;11.97
60936;BMP280;46804;51.786;19.520;2022-10-31T17:46:06;98891.38;;;11.90
60936;BMP280;46804;51.786;19.520;2022-10-31T17:50:07;98892.91;;;11.87
60936;BMP280;46804;51.786;19.520;2022-10-31T17:54:09;98903.13;;;11.68
60936;BMP280;46804;51.786;19.520;2022-10-31T17:58:10;98894.53;;;11.61
60936;BMP280;46804;51.786;19.520;2022-10-31T18:02:11;98890.88;;;11.72
60936;BMP280;46804;51.786;19.520;2022-10-31T18:06:12;98887.75;;;11.75
60936;BMP280;46804;51.786;19.520;2022-10-31T18:10:16;98890.84;;;11.67
60936;BMP280;46804;51.786;19.520;2022-10-31T18:14:16;98885.56;;;11.72
60936;BMP280;46804;51.786;19.520;2022-10-31T18:18:17;98881.13;;;11.56
60936;BMP280;46804;51.786;19.520;2022-10-31T18:22:17;98881.31;;;11.50
60936;BMP280;46804;51.786;19.520;2022-10-31T18:26:18;98879.66;;;11.44
60936;BMP280;46804;51.786;19.520;2022-10-31T18:30:18;98883.59;;;11.20
60936;BMP280;46804;51.786;19.520;2022-10-31T18:34:19;98885.25;;;11.05
60936;BMP280;46804;51.786;19.520;2022-10-31T18:38:19;98890.88;;;10.87
60936;BMP280;46804;51.786;19.520;2022-10-31T18:42:20;98884.63;;;10.98
60936;BMP280;46804;51.786;19.520;2022-10-31T18:46:20;98873.97;;;10.98
60936;BMP280;46804;51.786;19.520;2022-10-31T18:50:21;98890.19;;;10.97
60936;BMP280;46804;51.786;19.520;2022-10-31T18:54:22;98880.59;;;10.96
60936;BMP280;46804;51.786;19.520;2022-10-31T18:58:24;98888.84;;;10.94
60936;BMP280;46804;51.786;19.520;2022-10-31T19:02:25;98882.38;;;10.90
60936;BMP280;46804;51.786;19.520;2022-10-31T19:06:26;98879.97;;;10.89
60936;BMP280;46804;51.786;19.520;2022-10-31T19:10:27;98879.97;;;10.89
60936;BMP280;46804;51.786;19.520;2022-10-31T19:14:28;98880.75;;;10.89
60936;BMP280;46804;51.786;19.520;2022-10-31T19:18:29;98875.44;;;10.89
60936;BMP280;46804;51.786;19.520;2022-10-31T19:22:30;98866.81;;;10.83
60936;BMP280;46804;51.786;19.520;2022-10-31T19:26:32;98867.44;;;10.68
60936;BMP280;46804;51.786;19.520;2022-10-31T19:30:32;98867.25;;;10.58
60936;BMP280;46804;51.786;19.520;2022-10-31T19:34:33;98864.78;;;10.52
60936;BMP280;46804;51.786;19.520;2022-10-31T19:38:35;98865.56;;;10.52
60936;BMP280;46804;51.786;19.520;2022-10-31T19:42:36;98876.94;;;10.64
60936;BMP280;46804;51.786;19.520;2022-10-31T19:46:37;98863.41;;;10.66
60936;BMP280;46804;51.786;19.520;2022-10-31T19:50:37;98866.53;;;10.63
60936;BMP280;46804;51.786;19.520;2022-10-31T19:54:38;98865.97;;;10.61
60936;BMP280;46804;51.786;19.520;2022-10-31T19:58:38;98863.47;;;10.54
60936;BMP280;46804;51.786;19.520;2022-10-31T20:02:39;98859.06;;;10.60
60936;BMP280;46804;51.786;19.520;2022-10-31T20:06:40;98857.19;;;10.60
60936;BMP280;46804;51.786;19.520;2022-10-31T20:10:51;98851.31;;;10.58
60936;BMP280;46804;51.786;19.520;2022-10-31T20:14:52;98849.88;;;10.51
60936;BMP280;46804;51.786;19.520;2022-10-31T20:18:54;98845.59;;;10.50
60936;BMP280;46804;51.786;19.520;2022-10-31T20:22:54;98846.09;;;10.47
60936;BMP280;46804;51.786;19.520;2022-10-31T20:26:55;98848.25;;;10.50
60936;BMP280;46804;51.786;19.520;2022-10-31T20:30:55;98845.13;;;10.53
60936;BMP280;46804;51.786;19.520;2022-10-31T20:34:56;98841.63;;;10.52
60936;BMP280;46804;51.786;19.520;2022-10-31T20:38:57;98830.81;;;10.59
60936;BMP280;46804;51.786;19.520;2022-10-31T20:42:59;98840.56;;;10.70
60936;BMP280;46804;51.786;19.520;2022-10-31T20:47:00;98826.09;;;10.82
60936;BMP280;46804;51.786;19.520;2022-10-31T20:51:08;98829.09;;;10.85
60936;BMP280;46804;51.786;19.520;2022-10-31T20:55:09;98822.56;;;10.98
60936;BMP280;46804;51.786;19.520;2022-10-31T20:59:10;98832.47;;;11.02
60936;BMP280;46804;51.786;19.520;2022-10-31T21:03:11;98826.69;;;11.05
60936;BMP280;46804;51.786;19.520;2022-10-31T21:07:12;98820.28;;;11.06
60936;BMP280;46804;51.786;19.520;2022-10-31T21:11:15;98827.16;;;11.02
60936;BMP280;46804;51.786;19.520;2022-10-31T21:15:16;98832.38;;;10.92
60936;BMP280;46804;51.786;19.520;2022-10-31T21:19:17;98819.22;;;10.86
60936;BMP280;46804;51.786;19.520;2022-10-31T21:23:17;98822.00;;;10.75
60936;BMP280;46804;51.786;19.520;2022-10-31T21:27:18;98820.66;;;10.56
60936;BMP280;46804;51.786;19.520;2022-10-31T21:31:19;98820.03;;;10.49
60936;BMP280;46804;51.786;19.520;2022-10-31T21:35:19;98811.50;;;10.31
60936;BMP280;46804;51.786;19.520;2022-10-31T21:39:20;98815.31;;;10.18
60936;BMP280;46804;51.786;19.520;2022-10-31T21:43:21;98813.94;;;10.16
60936;BMP280;46804;51.786;19.520;2022-10-31T21:47:21;98815.25;;;10.14
60936;BMP280;46804;51.786;19.520;2022-10-31T21:51:27;98813.56;;;10.08
60936;BMP280;46804;51.786;19.520;2022-10-31T21:55:27;98804.03;;;9.95
60936;BMP280;46804;51.786;19.520;2022-10-31T21:59:29;98798.72;;;9.95
60936;BMP280;46804;51.786;19.520;2022-10-31T22:03:34;98801.38;;;9.95
60936;BMP280;46804;51.786;19.520;2022-10-31T22:07:34;98797.25;;;10.04
60936;BMP280;46804;51.786;19.520;2022-10-31T22:11:35;98789.06;;;10.06
60936;BMP280;46804;51.786;19.520;2022-10-31T22:15:36;98793.88;;;10.09
60936;BMP280;46804;51.786;19.520;2022-10-31T22:19:37;98798.19;;;10.31
60936;BMP280;46804;51.786;19.520;2022-10-31T22:23:38;98790.31;;;10.36
60936;BMP280;46804;51.786;19.520;2022-10-31T22:27:38;98794.41;;;10.43
60936;BMP280;46804;51.786;19.520;2022-10-31T22:31:40;98791.97;;;10.42
60936;BMP280;46804;51.786;19.520;2022-10-31T22:35:41;98791.06;;;10.31
60936;BMP280;46804;51.786;19.520;2022-10-31T22:39:42;98781.88;;;10.22
60936;BMP280;46804;51.786;19.520;2022-10-31T22:43:43;98772.22;;;10.17
60936;BMP280;46804;51.786;19.520;2022-10-31T22:47:43;98774.69;;;10.07
60936;BMP280;46804;51.786;19.520;2022-10-31T22:51:44;98782.59;;;10.02
60936;BMP280;46804;51.786;19.520;2022-10-31T22:55:44;98775.06;;;9.82
60936;BMP280;46804;51.786;19.520;2022-10-31T22:59:45;98785.78;;;9.55
60936;BMP280;46804;51.786;19.520;2022-10-31T23:03:46;98773.75;;;9.52
60936;BMP280;46804;51.786;19.520;2022-10-31T23:07:47;98760.97;;;9.49
60936;BMP280;46804;51.786;19.520;2022-10-31T23:11:47;98748.66;;;9.60
60936;BMP280;46804;51.786;19.520;2022-10-31T23:15:48;98750.91;;;9.68
60936;BMP280;46804;51.786;19.520;2022-10-31T23:19:48;98753.75;;;9.78
60936;BMP280;46804;51.786;19.520;2022-10-31T23:23:51;98752.53;;;9.85
60936;BMP280;46804;51.786;19.520;2022-10-31T23:27:51;98750.41;;;9.98
60936;BMP280;46804;51.786;19.520;2022-10-31T23:31:52;98758.13;;;10.16
60936;BMP280;46804;51.786;19.520;2022-10-31T23:35:53;98764.31;;;10.21
60936;BMP280;46804;51.786;19.520;2022-10-31T23:39:54;98767.19;;;10.20
60936;BMP280;46804;51.786;19.520;2022-10-31T23:43:55;98760.03;;;10.20
60936;BMP280;46804;51.786;19.520;2022-10-31T23:47:55;98744.66;;;10.22
60936;BMP280;46804;51.786;19.520;2022-10-31T23:51:56;98745.34;;;10.34
60936;BMP280;46804;51.786;19.520;2022-10-31T23:55:57;98737.38;;;10.34
60936;BMP280;46804;51.786;19.520;2022-10-31T23:59:57;98727.31;;;10.57
